createdAt,value
2017-02-19T00:00:25.418Z,1018.29
2017-02-19T00:01:05.979Z,1018.27
2017-02-19T00:01:46.542Z,1018.31
2017-02-19T00:02:27.103Z,1018.28
2017-02-19T00:03:07.694Z,1018.31
2017-02-19T00:03:49.280Z,1018.31
2017-02-19T00:04:29.856Z,1018.31
2017-02-19T00:05:10.456Z,1018.29
2017-02-19T00:05:51.045Z,1018.31
2017-02-19T00:06:31.610Z,1018.3
2017-02-19T00:07:12.171Z,1018.24
2017-02-19T00:07:52.770Z,1018.32
2017-02-19T00:08:35.349Z,1018.24
2017-02-19T00:09:15.976Z,1018.23
2017-02-19T00:09:56.545Z,1018.24
2017-02-19T00:10:37.119Z,1018.23
2017-02-19T00:11:17.687Z,1018.21
2017-02-19T00:11:58.247Z,1018.2
2017-02-19T00:12:38.821Z,1018.19
2017-02-19T00:13:19.406Z,1018.16
2017-02-19T00:13:59.987Z,1018.14
2017-02-19T00:14:40.573Z,1018.13
2017-02-19T00:15:21.145Z,1018.12
2017-02-19T00:16:01.706Z,1018.16
2017-02-19T00:16:42.304Z,1018.13
2017-02-19T00:17:23.874Z,1018.13
2017-02-19T00:18:05.444Z,1018.15
2017-02-19T00:18:46.025Z,1018.15
2017-02-19T00:19:26.591Z,1018.14
2017-02-19T00:20:07.199Z,1018.16
2017-02-19T00:20:47.769Z,1018.14
2017-02-19T00:21:28.329Z,1018.11
2017-02-19T00:22:08.932Z,1018.16
2017-02-19T00:22:51.523Z,1018.12
2017-02-19T00:23:33.075Z,1018.11
2017-02-19T00:24:13.676Z,1018.11
2017-02-19T00:24:54.246Z,1018.12
2017-02-19T00:25:34.808Z,1018.15
2017-02-19T00:26:15.369Z,1018.1
2017-02-19T00:26:55.944Z,1018.07
2017-02-19T00:27:36.521Z,1018.05
2017-02-19T00:28:17.101Z,1018.08
2017-02-19T00:28:59.681Z,1018.04
2017-02-19T00:29:40.260Z,1018.04
2017-02-19T00:30:20.822Z,1017.98
2017-02-19T00:31:01.379Z,1018.04
2017-02-19T00:31:41.950Z,1018
2017-02-19T00:32:23.547Z,1018.02
2017-02-19T00:33:04.113Z,1018.03
2017-02-19T00:33:44.672Z,1018.04
2017-02-19T00:34:25.238Z,1018.08
2017-02-19T00:35:05.852Z,1018.06
2017-02-19T00:35:48.451Z,1018.05
2017-02-19T00:36:29.022Z,1018.07
2017-02-19T00:37:09.568Z,1018.05
2017-02-19T00:37:50.131Z,1018.02
2017-02-19T00:38:30.695Z,1018.05
2017-02-19T00:39:13.265Z,1018
2017-02-19T00:39:53.831Z,1018
2017-02-19T00:40:34.393Z,1018
2017-02-19T00:41:14.981Z,1018.02
2017-02-19T00:41:55.546Z,1017.99
2017-02-19T00:42:36.114Z,1018.02
2017-02-19T00:43:16.672Z,1018.03
2017-02-19T00:43:57.254Z,1018.02
2017-02-19T00:44:37.823Z,1018.04
2017-02-19T00:45:19.388Z,1018.03
2017-02-19T00:45:59.950Z,1017.98
2017-02-19T00:46:40.709Z,1018.03
2017-02-19T00:47:21.302Z,1018
2017-02-19T00:48:01.872Z,1017.96
2017-02-19T00:48:42.439Z,1017.96
2017-02-19T00:49:27.652Z,1017.96
2017-02-19T00:50:08.231Z,1017.97
2017-02-19T00:50:48.798Z,1017.94
2017-02-19T00:51:29.390Z,1017.95
2017-02-19T00:52:09.968Z,1017.92
2017-02-19T00:52:50.534Z,1017.93
2017-02-19T00:53:31.123Z,1017.94
2017-02-19T00:54:11.731Z,1017.91
2017-02-19T00:54:52.306Z,1017.94
2017-02-19T00:55:32.923Z,1017.95
2017-02-19T00:56:13.507Z,1017.91
2017-02-19T00:56:54.072Z,1017.94
2017-02-19T00:57:34.630Z,1017.9
2017-02-19T00:58:16.218Z,1017.88
2017-02-19T00:58:56.778Z,1017.88
2017-02-19T00:59:38.356Z,1017.9
2017-02-19T01:00:18.920Z,1017.84
2017-02-19T01:01:00.474Z,1017.84
2017-02-19T01:01:41.036Z,1017.84
2017-02-19T01:02:23.610Z,1017.86
2017-02-19T01:03:04.193Z,1017.82
2017-02-19T01:03:46.156Z,1017.82
2017-02-19T01:04:26.718Z,1017.83
2017-02-19T01:05:08.292Z,1017.83
2017-02-19T01:05:49.863Z,1017.83
2017-02-19T01:06:31.435Z,1017.85
2017-02-19T01:07:12.008Z,1017.83
2017-02-19T01:07:53.589Z,1017.84
2017-02-19T01:08:34.159Z,1017.87
2017-02-19T01:09:14.742Z,1017.83
2017-02-19T01:09:55.313Z,1017.83
2017-02-19T01:10:35.885Z,1017.81
2017-02-19T01:11:16.458Z,1017.78
2017-02-19T01:11:57.022Z,1017.8
2017-02-19T01:12:37.614Z,1017.78
2017-02-19T01:13:18.170Z,1017.72
2017-02-19T01:13:58.741Z,1017.73
2017-02-19T01:14:39.317Z,1017.72
2017-02-19T01:15:19.896Z,1017.71
2017-02-19T01:16:00.459Z,1017.71
2017-02-19T01:16:41.022Z,1017.73
2017-02-19T01:17:21.598Z,1017.72
2017-02-19T01:18:02.156Z,1017.69
2017-02-19T01:18:42.729Z,1017.72
2017-02-19T01:19:23.282Z,1017.71
2017-02-19T01:20:03.862Z,1017.7
2017-02-19T01:20:44.435Z,1017.68
2017-02-19T01:21:25.048Z,1017.65
2017-02-19T01:22:06.729Z,1017.63
2017-02-19T01:22:47.396Z,1017.64
2017-02-19T01:23:28.035Z,1017.62
2017-02-19T01:24:08.693Z,1017.65
2017-02-19T01:24:49.251Z,1017.63
2017-02-19T01:25:29.844Z,1017.62
2017-02-19T01:26:10.425Z,1017.61
2017-02-19T01:26:51.092Z,1017.6
2017-02-19T01:27:31.660Z,1017.58
2017-02-19T01:28:12.241Z,1017.58
2017-02-19T01:28:52.833Z,1017.55
2017-02-19T01:29:33.500Z,1017.6
2017-02-19T01:30:14.076Z,1017.57
2017-02-19T01:30:54.658Z,1017.59
2017-02-19T01:31:35.236Z,1017.6
2017-02-19T01:32:16.830Z,1017.63
2017-02-19T01:32:57.387Z,1017.64
2017-02-19T01:33:38.010Z,1017.62
2017-02-19T01:34:18.587Z,1017.64
2017-02-19T01:34:59.231Z,1017.67
2017-02-19T01:35:39.811Z,1017.64
2017-02-19T01:36:20.391Z,1017.58
2017-02-19T01:37:02.007Z,1017.57
2017-02-19T01:37:42.668Z,1017.55
2017-02-19T01:38:23.247Z,1017.57
2017-02-19T01:39:03.940Z,1017.56
2017-02-19T01:39:44.516Z,1017.54
2017-02-19T01:40:26.091Z,1017.55
2017-02-19T01:41:06.661Z,1017.55
2017-02-19T01:41:48.233Z,1017.56
2017-02-19T01:42:29.883Z,1017.57
2017-02-19T01:43:10.547Z,1017.62
2017-02-19T01:43:51.113Z,1017.61
2017-02-19T01:44:31.702Z,1017.63
2017-02-19T01:45:12.296Z,1017.61
2017-02-19T01:45:54.909Z,1017.61
2017-02-19T01:46:35.559Z,1017.59
2017-02-19T01:47:18.159Z,1017.56
2017-02-19T01:48:00.754Z,1017.59
2017-02-19T01:48:41.402Z,1017.62
2017-02-19T01:49:22.056Z,1017.62
2017-02-19T01:50:02.626Z,1017.58
2017-02-19T01:50:43.183Z,1017.57
2017-02-19T01:51:23.808Z,1017.6
2017-02-19T01:52:04.462Z,1017.56
2017-02-19T01:52:45.041Z,1017.57
2017-02-19T01:53:25.616Z,1017.53
2017-02-19T01:54:06.206Z,1017.48
2017-02-19T01:54:46.766Z,1017.48
2017-02-19T01:55:27.317Z,1017.48
2017-02-19T01:56:12.564Z,1017.47
2017-02-19T01:56:55.176Z,1017.46
2017-02-19T01:57:35.740Z,1017.42
2017-02-19T01:58:16.342Z,1017.42
2017-02-19T01:58:56.928Z,1017.4
2017-02-19T01:59:37.519Z,1017.39
2017-02-19T02:00:18.154Z,1017.36
2017-02-19T02:00:58.783Z,1017.3
2017-02-19T02:01:39.396Z,1017.31
2017-02-19T02:02:20.070Z,1017.28
2017-02-19T02:03:01.660Z,1017.18
2017-02-19T02:03:42.238Z,1017.23
2017-02-19T02:04:22.817Z,1017.17
2017-02-19T02:05:08.187Z,1017.19
2017-02-19T02:05:48.842Z,1017.18
2017-02-19T02:06:29.517Z,1017.16
2017-02-19T02:07:10.128Z,1017.14
2017-02-19T02:07:50.801Z,1017.15
2017-02-19T02:08:31.414Z,1017.11
2017-02-19T02:09:11.995Z,1017.11
2017-02-19T02:09:52.698Z,1017.1
2017-02-19T02:10:33.356Z,1017.09
2017-02-19T02:11:14.003Z,1017.11
2017-02-19T02:11:55.681Z,1017.11
2017-02-19T02:12:37.382Z,1017.12
2017-02-19T02:13:18.010Z,1017.13
2017-02-19T02:13:58.662Z,1017.14
2017-02-19T02:14:39.314Z,1017.11
2017-02-19T02:15:20.890Z,1017.11
2017-02-19T02:16:01.543Z,1017.11
2017-02-19T02:16:42.195Z,1017.1
2017-02-19T02:17:22.848Z,1017.11
2017-02-19T02:18:03.501Z,1017.1
2017-02-19T02:18:44.154Z,1017.1
2017-02-19T02:19:25.727Z,1017.11
2017-02-19T02:20:06.380Z,1017.12
2017-02-19T02:20:47.955Z,1017.11
2017-02-19T02:21:28.525Z,1017.12
2017-02-19T02:22:10.118Z,1017.12
2017-02-19T02:22:51.755Z,1017.09
2017-02-19T02:23:33.433Z,1017.08
2017-02-19T02:24:14.086Z,1017.05
2017-02-19T02:24:54.740Z,1017.08
2017-02-19T02:25:35.391Z,1017.06
2017-02-19T02:26:16.967Z,1017.07
2017-02-19T02:26:57.619Z,1017.07
2017-02-19T02:27:38.272Z,1017.05
2017-02-19T02:28:18.923Z,1017.09
2017-02-19T02:28:59.576Z,1017.09
2017-02-19T02:29:40.135Z,1017.09
2017-02-19T02:30:22.772Z,1017.03
2017-02-19T02:31:03.395Z,1017.06
2017-02-19T02:31:44.031Z,1017.02
2017-02-19T02:32:24.591Z,1016.99
2017-02-19T02:33:05.203Z,1016.94
2017-02-19T02:33:45.775Z,1016.91
2017-02-19T02:34:26.439Z,1016.91
2017-02-19T02:35:06.995Z,1016.91
2017-02-19T02:35:48.623Z,1016.89
2017-02-19T02:36:29.217Z,1016.9
2017-02-19T02:37:09.868Z,1016.85
2017-02-19T02:37:50.459Z,1016.85
2017-02-19T02:38:31.125Z,1016.86
2017-02-19T02:39:11.700Z,1016.8
2017-02-19T02:39:52.377Z,1016.81
2017-02-19T02:40:32.936Z,1016.8
2017-02-19T02:41:13.584Z,1016.79
2017-02-19T02:41:54.233Z,1016.8
2017-02-19T02:42:34.801Z,1016.81
2017-02-19T02:43:15.437Z,1016.79
2017-02-19T02:43:57.013Z,1016.83
2017-02-19T02:44:37.585Z,1016.85
2017-02-19T02:45:19.158Z,1016.79
2017-02-19T02:45:59.730Z,1016.76
2017-02-19T02:46:40.294Z,1016.74
2017-02-19T02:47:20.853Z,1016.71
2017-02-19T02:48:02.464Z,1016.7
2017-02-19T02:48:43.156Z,1016.73
2017-02-19T02:49:28.593Z,1016.7
2017-02-19T02:50:09.237Z,1016.74
2017-02-19T02:50:49.827Z,1016.78
2017-02-19T02:51:30.495Z,1016.7
2017-02-19T02:52:11.090Z,1016.76
2017-02-19T02:52:51.647Z,1016.72
2017-02-19T02:53:32.246Z,1016.73
2017-02-19T02:54:12.809Z,1016.73
2017-02-19T02:54:53.455Z,1016.65
2017-02-19T02:55:34.047Z,1016.62
2017-02-19T02:56:14.693Z,1016.61
2017-02-19T02:56:57.290Z,1016.6
2017-02-19T02:57:43.597Z,1016.57
2017-02-19T02:58:24.244Z,1016.59
2017-02-19T02:59:04.889Z,1016.62
2017-02-19T02:59:45.541Z,1016.6
2017-02-19T03:00:26.194Z,1016.59
2017-02-19T03:01:06.845Z,1016.62
2017-02-19T03:01:47.502Z,1016.58
2017-02-19T03:02:30.080Z,1016.63
2017-02-19T03:03:10.649Z,1016.62
2017-02-19T03:03:51.304Z,1016.61
2017-02-19T03:04:31.956Z,1016.59
2017-02-19T03:05:12.532Z,1016.57
2017-02-19T03:05:53.090Z,1016.56
2017-02-19T03:06:33.806Z,1016.54
2017-02-19T03:07:15.486Z,1016.51
2017-02-19T03:07:56.144Z,1016.52
2017-02-19T03:08:36.744Z,1016.49
2017-02-19T03:09:18.318Z,1016.52
2017-02-19T03:10:00.964Z,1016.55
2017-02-19T03:10:42.644Z,1016.55
2017-02-19T03:11:23.212Z,1016.54
2017-02-19T03:12:03.818Z,1016.54
2017-02-19T03:12:45.419Z,1016.54
2017-02-19T03:13:26.994Z,1016.52
2017-02-19T03:14:07.557Z,1016.54
2017-02-19T03:14:48.180Z,1016.51
2017-02-19T03:15:29.777Z,1016.46
2017-02-19T03:16:10.430Z,1016.46
2017-02-19T03:16:51.989Z,1016.44
2017-02-19T03:17:33.574Z,1016.47
2017-02-19T03:18:14.228Z,1016.48
2017-02-19T03:18:54.883Z,1016.48
2017-02-19T03:19:36.454Z,1016.48
2017-02-19T03:20:17.013Z,1016.49
2017-02-19T03:20:58.636Z,1016.51
2017-02-19T03:21:40.358Z,1016.54
2017-02-19T03:22:21.215Z,1016.48
2017-02-19T03:23:01.781Z,1016.51
2017-02-19T03:23:42.370Z,1016.49
2017-02-19T03:24:22.967Z,1016.48
2017-02-19T03:25:04.540Z,1016.42
2017-02-19T03:25:45.108Z,1016.46
2017-02-19T03:26:25.739Z,1016.39
2017-02-19T03:27:18.381Z,1016.38
2017-02-19T03:27:58.942Z,1016.38
2017-02-19T03:28:39.582Z,1016.34
2017-02-19T03:29:20.234Z,1016.35
2017-02-19T03:30:00.800Z,1016.38
2017-02-19T03:30:41.428Z,1016.38
2017-02-19T03:31:22.019Z,1016.38
2017-02-19T03:32:02.571Z,1016.41
2017-02-19T03:32:44.170Z,1016.38
2017-02-19T03:33:24.772Z,1016.35
2017-02-19T03:34:05.420Z,1016.37
2017-02-19T03:34:46.011Z,1016.35
2017-02-19T03:35:26.678Z,1016.38
2017-02-19T03:36:09.328Z,1016.39
2017-02-19T03:36:50.962Z,1016.39
2017-02-19T03:37:31.607Z,1016.39
2017-02-19T03:38:12.261Z,1016.4
2017-02-19T03:38:52.915Z,1016.4
2017-02-19T03:39:35.513Z,1016.42
2017-02-19T03:40:16.161Z,1016.39
2017-02-19T03:40:56.815Z,1016.44
2017-02-19T03:41:37.477Z,1016.41
2017-02-19T03:42:18.120Z,1016.41
2017-02-19T03:42:58.784Z,1016.39
2017-02-19T03:43:40.454Z,1016.38
2017-02-19T03:44:21.104Z,1016.34
2017-02-19T03:45:01.759Z,1016.39
2017-02-19T03:45:42.760Z,1016.43
2017-02-19T03:46:23.418Z,1016.4
2017-02-19T03:47:04.007Z,1016.37
2017-02-19T03:47:44.575Z,1016.36
2017-02-19T03:48:25.168Z,1016.36
2017-02-19T03:49:05.737Z,1016.34
2017-02-19T03:49:46.294Z,1016.35
2017-02-19T03:50:26.879Z,1016.31
2017-02-19T03:51:07.537Z,1016.29
2017-02-19T03:51:49.208Z,1016.29
2017-02-19T03:52:29.861Z,1016.25
2017-02-19T03:53:10.522Z,1016.24
2017-02-19T03:53:51.174Z,1016.23
2017-02-19T03:54:33.808Z,1016.23
2017-02-19T03:55:14.396Z,1016.18
2017-02-19T03:55:55.070Z,1016.19
2017-02-19T03:56:35.722Z,1016.21
2017-02-19T03:57:16.389Z,1016.17
2017-02-19T03:57:57.043Z,1016.17
2017-02-19T03:58:39.640Z,1016.18
2017-02-19T03:59:20.278Z,1016.19
2017-02-19T04:00:00.933Z,1016.19
2017-02-19T04:00:41.531Z,1016.26
2017-02-19T04:01:23.210Z,1016.17
2017-02-19T04:02:03.785Z,1016.2
2017-02-19T04:02:44.381Z,1016.15
2017-02-19T04:03:25.989Z,1016.14
2017-02-19T04:04:06.642Z,1016.16
2017-02-19T04:04:47.204Z,1016.16
2017-02-19T04:05:27.793Z,1016.17
2017-02-19T04:06:08.391Z,1016.14
2017-02-19T04:06:50.071Z,1016.11
2017-02-19T04:07:30.640Z,1016.16
2017-02-19T04:08:11.224Z,1016.14
2017-02-19T04:08:51.839Z,1016.14
2017-02-19T04:09:32.475Z,1016.12
2017-02-19T04:10:13.045Z,1016.13
2017-02-19T04:10:53.636Z,1016.09
2017-02-19T04:11:34.218Z,1016.12
2017-02-19T04:12:15.908Z,1016.13
2017-02-19T04:12:56.462Z,1016.12
2017-02-19T04:13:37.074Z,1016.15
2017-02-19T04:14:17.665Z,1016.1
2017-02-19T04:14:58.317Z,1016.13
2017-02-19T04:15:38.969Z,1016.12
2017-02-19T04:16:19.616Z,1016.12
2017-02-19T04:17:00.274Z,1016.06
2017-02-19T04:17:40.925Z,1016.1
2017-02-19T04:18:21.578Z,1016.05
2017-02-19T04:19:02.644Z,1016.09
2017-02-19T04:19:43.288Z,1016.08
2017-02-19T04:20:23.948Z,1016.08
2017-02-19T04:21:05.522Z,1016.09
2017-02-19T04:21:46.174Z,1016.08
2017-02-19T04:22:26.828Z,1016.1
2017-02-19T04:23:07.486Z,1016.09
2017-02-19T04:23:48.134Z,1016.08
2017-02-19T04:24:28.787Z,1016.11
2017-02-19T04:25:11.355Z,1016.14
2017-02-19T04:25:52.942Z,1016.14
2017-02-19T04:26:33.611Z,1016.11
2017-02-19T04:27:14.264Z,1016.09
2017-02-19T04:27:54.917Z,1016.04
2017-02-19T04:28:35.569Z,1016.06
2017-02-19T04:29:16.222Z,1016.02
2017-02-19T04:29:56.877Z,1016.05
2017-02-19T04:30:37.528Z,1016.05
2017-02-19T04:31:18.182Z,1016
2017-02-19T04:31:58.858Z,1016
2017-02-19T04:32:39.487Z,1015.97
2017-02-19T04:33:20.141Z,1015.91
2017-02-19T04:34:00.791Z,1015.91
2017-02-19T04:34:41.444Z,1015.91
2017-02-19T04:35:22.096Z,1015.92
2017-02-19T04:36:02.658Z,1015.95
2017-02-19T04:36:43.300Z,1015.92
2017-02-19T04:37:23.956Z,1015.93
2017-02-19T04:38:04.608Z,1015.93
2017-02-19T04:38:45.263Z,1015.88
2017-02-19T04:39:26.938Z,1015.88
2017-02-19T04:40:07.914Z,1015.9
2017-02-19T04:40:48.501Z,1015.89
2017-02-19T04:41:29.508Z,1015.96
2017-02-19T04:42:10.067Z,1015.92
2017-02-19T04:42:51.742Z,1016
2017-02-19T04:43:32.388Z,1015.95
2017-02-19T04:44:12.969Z,1015.95
2017-02-19T04:44:58.096Z,1015.92
2017-02-19T04:45:38.750Z,1015.92
2017-02-19T04:46:19.324Z,1015.89
2017-02-19T04:46:59.952Z,1015.89
2017-02-19T04:47:40.607Z,1015.85
2017-02-19T04:48:21.174Z,1015.87
2017-02-19T04:49:01.824Z,1015.8
2017-02-19T04:49:42.463Z,1015.79
2017-02-19T04:50:23.036Z,1015.8
2017-02-19T04:51:03.665Z,1015.8
2017-02-19T04:51:44.320Z,1015.78
2017-02-19T04:52:24.971Z,1015.77
2017-02-19T04:53:05.624Z,1015.82
2017-02-19T04:53:47.301Z,1015.8
2017-02-19T04:54:27.952Z,1015.81
2017-02-19T04:55:08.607Z,1015.86
2017-02-19T04:55:49.261Z,1015.81
2017-02-19T04:56:29.854Z,1015.88
2017-02-19T04:57:10.466Z,1015.83
2017-02-19T04:57:51.115Z,1015.8
2017-02-19T04:58:33.716Z,1015.8
2017-02-19T04:59:14.369Z,1015.8
2017-02-19T04:59:54.977Z,1015.81
2017-02-19T05:00:35.534Z,1015.77
2017-02-19T05:01:16.155Z,1015.76
2017-02-19T05:01:56.725Z,1015.75
2017-02-19T05:02:37.292Z,1015.72
2017-02-19T05:03:17.874Z,1015.73
2017-02-19T05:03:59.552Z,1015.69
2017-02-19T05:04:40.117Z,1015.72
2017-02-19T05:05:22.803Z,1015.75
2017-02-19T05:06:04.480Z,1015.8
2017-02-19T05:06:45.135Z,1015.78
2017-02-19T05:07:25.773Z,1015.79
2017-02-19T05:08:06.436Z,1015.76
2017-02-19T05:08:47.110Z,1015.76
2017-02-19T05:09:27.744Z,1015.77
2017-02-19T05:10:08.396Z,1015.77
2017-02-19T05:10:49.051Z,1015.74
2017-02-19T05:11:29.627Z,1015.69
2017-02-19T05:12:10.205Z,1015.68
2017-02-19T05:12:50.808Z,1015.63
2017-02-19T05:13:31.458Z,1015.68
2017-02-19T05:14:12.020Z,1015.62
2017-02-19T05:14:52.623Z,1015.63
2017-02-19T05:15:33.237Z,1015.59
2017-02-19T05:16:13.766Z,1015.62
2017-02-19T05:16:54.427Z,1015.61
2017-02-19T05:17:35.069Z,1015.55
2017-02-19T05:18:15.714Z,1015.55
2017-02-19T05:18:57.298Z,1015.48
2017-02-19T05:19:37.956Z,1015.45
2017-02-19T05:20:19.007Z,1015.44
2017-02-19T05:20:59.662Z,1015.45
2017-02-19T05:21:40.252Z,1015.44
2017-02-19T05:22:20.932Z,1015.46
2017-02-19T05:23:01.522Z,1015.45
2017-02-19T05:23:42.170Z,1015.43
2017-02-19T05:24:22.752Z,1015.4
2017-02-19T05:25:03.442Z,1015.38
2017-02-19T05:25:44.027Z,1015.37
2017-02-19T05:26:24.620Z,1015.35
2017-02-19T05:27:05.232Z,1015.34
2017-02-19T05:27:45.887Z,1015.32
2017-02-19T05:28:26.438Z,1015.32
2017-02-19T05:29:07.089Z,1015.32
2017-02-19T05:29:47.742Z,1015.36
2017-02-19T05:30:28.293Z,1015.32
2017-02-19T05:31:08.945Z,1015.35
2017-02-19T05:31:49.608Z,1015.35
2017-02-19T05:32:30.252Z,1015.31
2017-02-19T05:33:10.901Z,1015.25
2017-02-19T05:33:51.561Z,1015.31
2017-02-19T05:34:32.204Z,1015.34
2017-02-19T05:35:12.762Z,1015.34
2017-02-19T05:35:53.405Z,1015.38
2017-02-19T05:36:34.086Z,1015.4
2017-02-19T05:37:14.641Z,1015.44
2017-02-19T05:37:55.207Z,1015.41
2017-02-19T05:38:35.812Z,1015.41
2017-02-19T05:39:16.482Z,1015.41
2017-02-19T05:39:57.054Z,1015.44
2017-02-19T05:40:37.678Z,1015.47
2017-02-19T05:41:18.322Z,1015.49
2017-02-19T05:41:58.975Z,1015.43
2017-02-19T05:42:39.638Z,1015.4
2017-02-19T05:43:20.289Z,1015.45
2017-02-19T05:44:00.932Z,1015.45
2017-02-19T05:44:41.589Z,1015.46
2017-02-19T05:45:23.162Z,1015.44
2017-02-19T05:46:03.815Z,1015.46
2017-02-19T05:46:44.474Z,1015.46
2017-02-19T05:47:25.134Z,1015.44
2017-02-19T05:48:05.778Z,1015.45
2017-02-19T05:48:46.432Z,1015.42
2017-02-19T05:49:27.092Z,1015.38
2017-02-19T05:50:07.665Z,1015.37
2017-02-19T05:50:48.300Z,1015.35
2017-02-19T05:51:28.849Z,1015.33
2017-02-19T05:52:09.489Z,1015.29
2017-02-19T05:52:51.064Z,1015.33
2017-02-19T05:53:31.643Z,1015.3
2017-02-19T05:54:12.264Z,1015.27
2017-02-19T05:54:52.918Z,1015.28
2017-02-19T05:55:33.482Z,1015.31
2017-02-19T05:56:14.120Z,1015.3
2017-02-19T05:56:55.695Z,1015.3
2017-02-19T05:57:36.288Z,1015.28
2017-02-19T05:58:16.954Z,1015.32
2017-02-19T05:58:57.545Z,1015.29
2017-02-19T05:59:38.202Z,1015.29
2017-02-19T06:00:18.764Z,1015.26
2017-02-19T06:00:59.360Z,1015.27
2017-02-19T06:01:39.961Z,1015.24
2017-02-19T06:02:20.559Z,1015.26
2017-02-19T06:03:01.125Z,1015.26
2017-02-19T06:03:41.779Z,1015.24
2017-02-19T06:04:22.362Z,1015.21
2017-02-19T06:05:03.018Z,1015.22
2017-02-19T06:05:43.710Z,1015.15
2017-02-19T06:06:24.234Z,1015.17
2017-02-19T06:07:05.896Z,1015.15
2017-02-19T06:07:46.551Z,1015.16
2017-02-19T06:08:27.122Z,1015.17
2017-02-19T06:09:07.756Z,1015.15
2017-02-19T06:09:48.404Z,1015.15
2017-02-19T06:10:28.963Z,1015.15
2017-02-19T06:11:09.610Z,1015.16
2017-02-19T06:11:50.179Z,1015.14
2017-02-19T06:12:30.795Z,1015.12
2017-02-19T06:13:11.461Z,1015.13
2017-02-19T06:13:54.053Z,1015.13
2017-02-19T06:14:34.609Z,1015.16
2017-02-19T06:15:15.161Z,1015.12
2017-02-19T06:15:55.751Z,1015.14
2017-02-19T06:16:36.373Z,1015.15
2017-02-19T06:17:16.950Z,1015.16
2017-02-19T06:17:57.533Z,1015.18
2017-02-19T06:18:39.137Z,1015.16
2017-02-19T06:19:19.733Z,1015.17
2017-02-19T06:20:00.291Z,1015.16
2017-02-19T06:20:40.895Z,1015.16
2017-02-19T06:21:21.468Z,1015.17
2017-02-19T06:22:03.123Z,1015.16
2017-02-19T06:22:43.777Z,1015.16
2017-02-19T06:23:24.338Z,1015.15
2017-02-19T06:24:04.980Z,1015.17
2017-02-19T06:24:45.631Z,1015.13
2017-02-19T06:25:26.203Z,1015.11
2017-02-19T06:26:06.786Z,1015.14
2017-02-19T06:26:47.372Z,1015.15
2017-02-19T06:27:27.942Z,1015.17
2017-02-19T06:28:08.520Z,1015.1
2017-02-19T06:28:49.193Z,1015.11
2017-02-19T06:29:29.763Z,1015.05
2017-02-19T06:30:11.320Z,1015.09
2017-02-19T06:30:51.883Z,1015.08
2017-02-19T06:31:32.471Z,1015.1
2017-02-19T06:32:13.088Z,1015.08
2017-02-19T06:32:54.639Z,1015.06
2017-02-19T06:33:35.207Z,1015.05
2017-02-19T06:34:15.797Z,1015.03
2017-02-19T06:34:56.353Z,1014.99
2017-02-19T06:35:36.923Z,1015.06
2017-02-19T06:36:17.494Z,1015.05
2017-02-19T06:36:58.074Z,1015.04
2017-02-19T06:37:38.635Z,1015.08
2017-02-19T06:38:19.202Z,1015.05
2017-02-19T06:38:59.785Z,1015.12
2017-02-19T06:39:40.362Z,1015.08
2017-02-19T06:40:20.952Z,1015.08
2017-02-19T06:41:01.518Z,1015.1
2017-02-19T06:41:42.091Z,1015.09
2017-02-19T06:42:22.648Z,1015.11
2017-02-19T06:43:03.217Z,1015.11
2017-02-19T06:43:43.774Z,1015.11
2017-02-19T06:44:24.360Z,1015.1
2017-02-19T06:45:04.917Z,1015.07
2017-02-19T06:45:45.558Z,1015.13
2017-02-19T06:46:26.148Z,1015.12
2017-02-19T06:47:06.770Z,1015.16
2017-02-19T06:47:47.358Z,1015.14
2017-02-19T06:48:27.928Z,1015.17
2017-02-19T06:49:08.503Z,1015.2
2017-02-19T06:49:49.104Z,1015.22
2017-02-19T06:50:29.673Z,1015.2
2017-02-19T06:51:10.240Z,1015.24
2017-02-19T06:51:50.839Z,1015.29
2017-02-19T06:52:31.427Z,1015.26
2017-02-19T06:53:12.015Z,1015.28
2017-02-19T06:53:52.609Z,1015.34
2017-02-19T06:54:34.186Z,1015.31
2017-02-19T06:55:14.764Z,1015.28
2017-02-19T06:55:55.364Z,1015.28
2017-02-19T06:56:35.952Z,1015.3
2017-02-19T06:57:16.525Z,1015.28
2017-02-19T06:57:57.116Z,1015.26
2017-02-19T06:58:37.699Z,1015.28
2017-02-19T06:59:18.271Z,1015.29
2017-02-19T06:59:58.844Z,1015.26
2017-02-19T07:00:39.430Z,1015.23
2017-02-19T07:01:20.003Z,1015.27
2017-02-19T07:02:00.584Z,1015.29
2017-02-19T07:02:41.560Z,1015.29
2017-02-19T07:03:22.130Z,1015.29
2017-02-19T07:04:02.698Z,1015.29
2017-02-19T07:04:43.291Z,1015.25
2017-02-19T07:05:23.848Z,1015.21
2017-02-19T07:06:04.408Z,1015.22
2017-02-19T07:06:45.016Z,1015.26
2017-02-19T07:07:25.588Z,1015.23
2017-02-19T07:08:06.152Z,1015.22
2017-02-19T07:08:46.717Z,1015.25
2017-02-19T07:09:27.292Z,1015.21
2017-02-19T07:10:07.861Z,1015.22
2017-02-19T07:10:48.422Z,1015.24
2017-02-19T07:11:29.026Z,1015.18
2017-02-19T07:12:09.598Z,1015.16
2017-02-19T07:12:50.202Z,1015.17
2017-02-19T07:13:30.755Z,1015.1
2017-02-19T07:14:11.345Z,1015.15
2017-02-19T07:14:51.924Z,1015.16
2017-02-19T07:15:32.483Z,1015.18
2017-02-19T07:16:13.056Z,1015.25
2017-02-19T07:16:53.617Z,1015.26
2017-02-19T07:17:34.180Z,1015.21
2017-02-19T07:18:14.784Z,1015.23
2017-02-19T07:18:55.362Z,1015.26
2017-02-19T07:19:35.958Z,1015.18
2017-02-19T07:20:16.522Z,1015.2
2017-02-19T07:20:57.116Z,1015.16
2017-02-19T07:21:37.682Z,1015.18
2017-02-19T07:22:18.279Z,1015.19
2017-02-19T07:22:58.869Z,1015.19
2017-02-19T07:23:39.449Z,1015.17
2017-02-19T07:24:20.040Z,1015.17
2017-02-19T07:25:00.615Z,1015.23
2017-02-19T07:25:41.222Z,1015.21
2017-02-19T07:26:21.800Z,1015.19
2017-02-19T07:27:02.372Z,1015.2
2017-02-19T07:27:42.936Z,1015.19
2017-02-19T07:28:23.556Z,1015.23
2017-02-19T07:29:04.234Z,1015.2
2017-02-19T07:29:45.814Z,1015.15
2017-02-19T07:30:26.380Z,1015.14
2017-02-19T07:31:06.952Z,1015.14
2017-02-19T07:31:47.548Z,1015.11
2017-02-19T07:32:28.128Z,1015.16
2017-02-19T07:33:09.712Z,1015.14
2017-02-19T07:33:50.278Z,1015.14
2017-02-19T07:34:30.846Z,1015.16
2017-02-19T07:35:11.457Z,1015.13
2017-02-19T07:35:52.050Z,1015.1
2017-02-19T07:36:32.650Z,1015.11
2017-02-19T07:37:13.266Z,1015.13
2017-02-19T07:37:53.854Z,1015.14
2017-02-19T07:38:34.488Z,1015.16
2017-02-19T07:39:15.054Z,1015.18
2017-02-19T07:39:55.620Z,1015.17
2017-02-19T07:40:36.195Z,1015.15
2017-02-19T07:41:16.773Z,1015.11
2017-02-19T07:41:57.400Z,1015.08
2017-02-19T07:42:38.044Z,1015.09
2017-02-19T07:43:18.636Z,1015.07
2017-02-19T07:43:59.252Z,1015.1
2017-02-19T07:44:39.901Z,1015.09
2017-02-19T07:45:20.456Z,1015.06
2017-02-19T07:46:01.108Z,1015.03
2017-02-19T07:46:41.757Z,1015.08
2017-02-19T07:47:22.409Z,1015.11
2017-02-19T07:48:03.080Z,1015.09
2017-02-19T07:48:43.713Z,1015.08
2017-02-19T07:49:24.367Z,1015.13
2017-02-19T07:50:05.020Z,1015.11
2017-02-19T07:50:45.579Z,1015.14
2017-02-19T07:51:26.186Z,1015.14
2017-02-19T07:52:06.782Z,1015.11
2017-02-19T07:52:47.429Z,1015.12
2017-02-19T07:53:27.984Z,1015.15
2017-02-19T07:54:08.588Z,1015.11
2017-02-19T07:54:49.181Z,1015.11
2017-02-19T07:55:29.832Z,1015.11
2017-02-19T07:56:10.394Z,1015.12
2017-02-19T07:56:51.048Z,1015.14
2017-02-19T07:57:31.689Z,1015.08
2017-02-19T07:58:12.270Z,1015.07
2017-02-19T07:58:52.907Z,1015.12
2017-02-19T07:59:33.544Z,1015.16
2017-02-19T08:00:14.134Z,1015.14
2017-02-19T08:00:54.887Z,1015.1
2017-02-19T08:01:35.504Z,1015.11
2017-02-19T08:02:16.157Z,1015.13
2017-02-19T08:02:56.809Z,1015.19
2017-02-19T08:03:37.465Z,1015.15
2017-02-19T08:04:18.123Z,1015.12
2017-02-19T08:04:58.767Z,1015.18
2017-02-19T08:05:39.330Z,1015.11
2017-02-19T08:06:21.961Z,1015.07
2017-02-19T08:07:02.550Z,1015.06
2017-02-19T08:07:43.224Z,1015.07
2017-02-19T08:08:23.779Z,1015.09
2017-02-19T08:09:04.433Z,1015.04
2017-02-19T08:09:44.990Z,1015.02
2017-02-19T08:10:25.627Z,1015.02
2017-02-19T08:11:06.321Z,1015.06
2017-02-19T08:11:46.935Z,1015.02
2017-02-19T08:12:27.590Z,1014.99
2017-02-19T08:13:08.247Z,1014.98
2017-02-19T08:13:48.927Z,1015
2017-02-19T08:14:30.568Z,1014.98
2017-02-19T08:15:11.221Z,1014.96
2017-02-19T08:15:51.814Z,1014.97